Time;durP1;ratioP1;P1;durP2;ratioP2;P2;SDS_P1;SDS_P2;PMS_P1;PMS_P2;Temp;Humidity;BMP_temperature;BMP_pressure;BME280_temperature;BME280_humidity;BME280_pressure;Samples;Min_cycle;Max_cycle;Signal;HPM_P1;HPM_P2
2021/06/02 00:01:31;;;;;;;6.95;2.80;;;13.80;99.90;;;;;;4365415;32;20092;-81
2021/06/02 00:03:58;;;;;;;4.25;2.22;;;13.80;99.90;;;;;;4368174;32;20070;-79
2021/06/02 00:06:26;;;;;;;4.28;2.47;;;13.70;99.90;;;;;;4346125;32;20073;-78
2021/06/02 00:08:53;;;;;;;4.90;2.60;;;13.70;99.90;;;;;;4361745;32;20084;-78
2021/06/02 00:11:19;;;;;;;3.97;2.25;;;13.70;99.90;;;;;;4351800;32;20081;-81
2021/06/02 00:13:45;;;;;;;4.28;2.12;;;13.60;99.90;;;;;;4363040;32;20067;-81
2021/06/02 00:16:11;;;;;;;5.03;2.22;;;13.60;99.90;;;;;;4349220;32;20078;-79
2021/06/02 00:18:37;;;;;;;4.25;2.12;;;13.50;99.90;;;;;;4357369;32;20178;-78
2021/06/02 00:21:06;;;;;;;4.90;2.20;;;13.50;99.90;;;;;;4350255;32;20100;-77
2021/06/02 00:23:33;;;;;;;3.17;2.22;;;13.50;99.90;;;;;;4360932;32;20094;-78
2021/06/02 00:26:02;;;;;;;5.70;2.50;;;13.50;99.90;;;;;;4344594;32;20078;-80
2021/06/02 00:28:28;;;;;;;3.00;2.00;;;13.40;99.90;;;;;;4337428;32;20077;-80
2021/06/02 00:30:55;;;;;;;3.05;2.22;;;13.40;99.90;;;;;;4350461;32;20078;-82
2021/06/02 00:33:22;;;;;;;4.97;2.47;;;13.40;99.90;;;;;;4371762;32;20083;-81
2021/06/02 00:35:49;;;;;;;5.78;2.20;;;13.30;99.90;;;;;;4352725;32;20062;-80
2021/06/02 00:38:15;;;;;;;3.05;2.20;;;13.30;99.90;;;;;;4347598;32;20497;-82
2021/06/02 00:40:49;;;;;;;3.35;2.20;;;13.30;99.90;;;;;;4367265;32;20100;-77
2021/06/02 00:43:18;;;;;;;3.70;2.62;;;13.30;99.90;;;;;;4366626;32;20118;-80
2021/06/02 00:45:45;;;;;;;13.65;2.70;;;13.30;99.90;;;;;;4345187;32;20138;-82
2021/06/02 00:48:17;;;;;;;12.43;3.03;;;13.30;99.90;;;;;;4336221;32;20083;-81
2021/06/02 00:50:49;;;;;;;4.22;2.30;;;13.20;99.90;;;;;;4344803;32;20522;-79
2021/06/02 00:53:16;;;;;;;5.80;2.22;;;13.20;99.90;;;;;;4359560;32;20067;-82
2021/06/02 00:55:43;;;;;;;4.43;2.60;;;13.20;99.90;;;;;;4347952;32;20461;-78
2021/06/02 00:58:14;;;;;;;3.75;2.10;;;13.20;99.90;;;;;;4329904;32;20065;-79
2021/06/02 01:00:40;;;;;;;4.62;2.40;;;13.20;99.90;;;;;;4371674;32;20058;-79
2021/06/02 01:03:06;;;;;;;2.28;1.70;;;13.20;99.90;;;;;;4362207;32;20105;-80
2021/06/02 01:05:33;;;;;;;3.78;2.00;;;13.20;99.90;;;;;;4360233;32;20117;-78
2021/06/02 01:08:04;;;;;;;4.93;2.00;;;13.20;99.90;;;;;;4347617;32;20175;-80
2021/06/02 01:10:30;;;;;;;4.12;2.20;;;13.20;99.90;;;;;;4359956;32;20070;-80
2021/06/02 01:12:59;;;;;;;4.47;1.83;;;13.20;99.90;;;;;;4336593;32;20429;-78
2021/06/02 01:15:26;;;;;;;4.28;2.20;;;13.20;99.90;;;;;;4370385;32;20105;-79
2021/06/02 01:17:52;;;;;;;4.40;2.35;;;13.20;99.90;;;;;;4354720;32;20512;-79
2021/06/02 01:20:19;;;;;;;2.67;1.90;;;13.20;99.90;;;;;;4374808;32;20066;-77
2021/06/02 01:22:46;;;;;;;4.65;2.08;;;13.30;99.90;;;;;;4362233;32;20535;-80
2021/06/02 01:25:15;;;;;;;3.15;2.20;;;13.30;99.90;;;;;;4371685;32;20183;-77
2021/06/02 01:27:41;;;;;;;6.45;2.10;;;13.20;99.90;;;;;;4356106;32;20167;-80
2021/06/02 01:30:10;;;;;;;5.87;2.50;;;13.30;99.90;;;;;;4354104;32;20081;-81
2021/06/02 01:32:53;;;;;;;5.55;2.20;;;13.40;99.90;;;;;;4359341;32;20078;-82
2021/06/02 01:35:50;;;;;;;2.58;1.90;;;13.40;99.90;;;;;;4361009;32;20076;-81
2021/06/02 01:39:04;;;;;;;3.67;2.00;;;13.50;99.90;;;;;;4352077;32;20093;-79
2021/06/02 01:41:54;;;;;;;2.78;2.10;;;13.50;99.90;;;;;;4349502;32;20077;-81
2021/06/02 01:45:13;;;;;;;3.25;2.33;;;13.50;99.90;;;;;;4364014;32;20153;-80
2021/06/02 01:48:06;;;;;;;2.53;1.90;;;13.70;99.90;;;;;;4367234;32;20485;-82
2021/06/02 01:51:23;;;;;;;3.55;2.00;;;13.70;99.90;;;;;;4363378;32;20086;-78
2021/06/02 01:54:40;;;;;;;4.28;2.12;;;13.80;99.90;;;;;;4362411;32;20514;-77
2021/06/02 01:57:36;;;;;;;2.65;1.95;;;13.80;99.90;;;;;;4355022;32;20147;-78
2021/06/02 02:00:51;;;;;;;6.03;2.53;;;13.90;99.90;;;;;;4349438;32;20067;-78
2021/06/02 02:04:09;;;;;;;3.65;2.05;;;14.00;99.90;;;;;;4331017;33;20529;-81
2021/06/02 02:07:10;;;;;;;4.68;1.90;;;14.10;99.90;;;;;;4361790;32;20088;-78
2021/06/02 02:10:19;;;;;;;5.22;1.90;;;14.10;99.90;;;;;;4367610;32;20063;-79
2021/06/02 02:13:32;;;;;;;2.47;2.10;;;14.30;99.90;;;;;;4363999;32;20066;-77
2021/06/02 02:16:23;;;;;;;2.80;1.92;;;14.30;99.90;;;;;;4370406;32;20485;-80
2021/06/02 02:19:33;;;;;;;4.22;1.98;;;14.30;99.90;;;;;;4374762;32;20069;-79
2021/06/02 02:22:07;;;;;;;3.33;1.90;;;14.30;99.90;;;;;;4357545;32;20078;-79
2021/06/02 02:25:21;;;;;;;4.53;2.33;;;14.40;99.90;;;;;;4365531;32;20459;-80
2021/06/02 02:28:23;;;;;;;5.97;1.92;;;14.50;99.90;;;;;;4316525;33;20082;-78
2021/06/02 02:31:06;;;;;;;3.12;2.30;;;14.60;99.90;;;;;;4374357;32;20157;-80
2021/06/02 02:33:49;;;;;;;4.57;2.35;;;14.50;99.90;;;;;;4356618;32;20070;-79
2021/06/02 02:36:41;;;;;;;4.75;2.28;;;14.60;99.90;;;;;;4364906;32;20480;-76
2021/06/02 02:39:58;;;;;;;4.53;1.95;;;14.70;99.90;;;;;;4363442;32;20078;-81
2021/06/02 02:42:49;;;;;;;2.72;1.90;;;14.90;99.90;;;;;;4346838;32;20167;-80
2021/06/02 02:45:46;;;;;;;3.95;2.28;;;14.80;99.90;;;;;;4361893;32;20110;-78
2021/06/02 02:48:36;;;;;;;4.07;2.25;;;15.10;99.90;;;;;;4337675;32;20075;-79
2021/06/02 02:51:23;;;;;;;5.62;2.10;;;15.00;99.90;;;;;;4365685;32;20558;-81
2021/06/02 02:54:04;;;;;;;4.80;2.50;;;15.40;99.90;;;;;;4369735;32;20132;-77
2021/06/02 02:57:02;;;;;;;4.75;2.33;;;15.40;99.90;;;;;;4348281;32;20152;-80
2021/06/02 02:59:59;;;;;;;3.92;2.87;;;15.50;99.90;;;;;;4342205;32;20429;-78
2021/06/02 03:02:54;;;;;;;3.37;2.20;;;15.60;99.90;;;;;;4362065;32;20093;-82
2021/06/02 03:05:30;;;;;;;5.28;2.30;;;15.60;99.90;;;;;;4362293;32;20090;-80
2021/06/02 03:08:21;;;;;;;3.58;1.90;;;15.50;99.90;;;;;;4362084;32;20082;-79
2021/06/02 03:11:14;;;;;;;5.10;2.50;;;15.70;99.90;;;;;;4351549;32;20081;-78
2021/06/02 03:14:17;;;;;;;5.10;2.55;;;15.70;99.90;;;;;;4340053;32;20081;-78
2021/06/02 03:17:06;;;;;;;4.05;2.10;;;15.70;99.90;;;;;;4377301;32;20082;-80
2021/06/02 03:19:46;;;;;;;3.55;2.05;;;15.80;99.90;;;;;;4366478;32;20174;-81
2021/06/02 03:22:15;;;;;;;4.28;2.25;;;15.90;99.90;;;;;;4361198;32;20515;-80
2021/06/02 03:25:25;;;;;;;5.45;2.28;;;15.80;99.90;;;;;;4348482;32;20502;-78
2021/06/02 03:28:35;;;;;;;6.28;2.20;;;15.80;99.90;;;;;;4349048;32;20073;-79
2021/06/02 03:31:20;;;;;;;4.82;2.35;;;16.00;99.90;;;;;;4360032;32;20224;-78
2021/06/02 03:34:08;;;;;;;4.07;2.65;;;16.00;99.90;;;;;;4370400;32;20087;-80
2021/06/02 03:37:19;;;;;;;5.82;2.30;;;16.10;99.90;;;;;;4366504;32;20077;-78
2021/06/02 03:40:20;;;;;;;4.68;2.30;;;16.40;99.90;;;;;;4372204;32;20066;-78
2021/06/02 03:42:54;;;;;;;6.47;2.28;;;16.70;99.90;;;;;;4361206;32;20059;-79
2021/06/02 03:46:05;;;;;;;10.93;2.50;;;16.90;99.90;;;;;;4362102;32;20083;-77
2021/06/02 03:48:45;;;;;;;7.32;2.60;;;17.00;99.90;;;;;;4347414;32;20086;-79
2021/06/02 03:51:39;;;;;;;7.40;2.25;;;17.00;99.90;;;;;;4353555;32;20074;-81
2021/06/02 03:54:27;;;;;;;4.90;2.30;;;17.00;99.90;;;;;;4356885;32;20123;-76
2021/06/02 03:57:12;;;;;;;3.28;2.35;;;17.00;99.90;;;;;;4364060;32;20094;-78
2021/06/02 03:59:42;;;;;;;6.32;2.25;;;17.00;99.90;;;;;;4349348;32;20093;-79
2021/06/02 04:02:28;;;;;;;5.85;2.28;;;17.00;99.90;;;;;;4344639;32;20159;-81
2021/06/02 04:05:41;;;;;;;4.60;2.20;;;17.10;99.90;;;;;;4374657;32;20081;-79
2021/06/02 04:08:40;;;;;;;7.82;2.80;;;17.00;99.90;;;;;;4360979;32;20070;-78
2021/06/02 04:11:47;;;;;;;5.05;2.30;;;17.10;99.90;;;;;;4364030;32;20109;-75
2021/06/02 04:14:25;;;;;;;3.30;2.15;;;17.20;99.90;;;;;;4348131;32;20144;-79
2021/06/02 04:16:51;;;;;;;4.35;2.30;;;17.30;99.90;;;;;;4363694;32;20104;-74
2021/06/02 04:19:18;;;;;;;4.18;2.42;;;17.30;99.90;;;;;;4330489;32;20069;-75
2021/06/02 04:21:45;;;;;;;3.65;2.00;;;17.50;99.90;;;;;;4357561;32;20057;-78
2021/06/02 04:24:16;;;;;;;5.05;2.65;;;17.60;99.90;;;;;;4368756;32;20083;-78
2021/06/02 04:26:44;;;;;;;6.03;2.08;;;17.50;99.90;;;;;;4346706;32;20229;-77
2021/06/02 04:29:12;;;;;;;7.07;2.65;;;17.70;99.90;;;;;;4347502;32;20142;-81
2021/06/02 04:31:53;;;;;;;7.87;2.50;;;18.10;97.30;;;;;;4355063;32;20085;-80
2021/06/02 04:34:23;;;;;;;6.68;2.55;;;17.80;98.40;;;;;;4350327;32;20059;-79
2021/06/02 04:36:54;;;;;;;4.82;2.50;;;17.90;99.90;;;;;;4341570;32;20133;-78
2021/06/02 04:39:21;;;;;;;2.85;2.28;;;17.60;99.90;;;;;;4346350;32;20167;-79
2021/06/02 04:41:47;;;;;;;9.15;2.80;;;17.50;99.80;;;;;;4339575;32;20105;-77
2021/06/02 04:44:17;;;;;;;7.93;3.03;;;17.80;99.30;;;;;;4336048;32;20085;-76
2021/06/02 04:46:47;;;;;;;8.07;2.50;;;17.90;98.20;;;;;;4351739;32;20074;-76
2021/06/02 04:49:14;;;;;;;7.10;2.90;;;17.70;98.00;;;;;;4327913;32;20074;-78
2021/06/02 04:51:59;;;;;;;5.90;2.67;;;17.70;98.50;;;;;;4338856;32;20585;-82
2021/06/02 04:54:52;;;;;;;4.82;2.30;;;18.00;99.20;;;;;;4372248;32;20113;-81
2021/06/02 04:58:12;;;;;;;6.10;2.67;;;17.80;99.20;;;;;;4360784;32;20062;-79
2021/06/02 05:01:06;;;;;;;6.28;2.15;;;17.80;99.90;;;;;;4346999;32;20078;-80
2021/06/02 05:04:28;;;;;;;5.62;2.10;;;17.80;99.50;;;;;;4355571;32;20110;-67
2021/06/02 05:07:04;;;;;;;7.00;2.67;;;17.90;99.90;;;;;;4346699;32;20702;-77
2021/06/02 05:09:56;;;;;;;4.07;2.20;;;18.10;99.80;;;;;;4355116;32;20068;-73
2021/06/02 05:12:53;;;;;;;3.65;2.20;;;18.20;99.90;;;;;;4335748;32;20535;-74
2021/06/02 05:15:59;;;;;;;;;;;18.30;99.90;;;;;;4346424;32;20090;-74
2021/06/02 05:18:34;;;;;;;9.00;2.50;;;18.10;99.90;;;;;;4336203;32;19966;-75
2021/06/02 05:25:23;;;;;;;5.47;2.30;;;18.50;99.40;;;;;;4354455;32;20074;-74
2021/06/02 05:28:36;;;;;;;4.20;2.28;;;18.50;99.10;;;;;;4348495;32;20513;-73
2021/06/02 05:31:30;;;;;;;6.62;2.20;;;18.50;97.80;;;;;;4352909;32;20121;-75
2021/06/02 05:34:40;;;;;;;5.65;2.53;;;18.40;98.30;;;;;;4352162;32;20090;-76
2021/06/02 05:38:05;;;;;;;5.00;2.17;;;18.60;98.60;;;;;;4347027;32;20081;-75
2021/06/02 05:41:07;;;;;;;8.38;2.50;;;18.80;96.40;;;;;;4357508;32;20481;-74
2021/06/02 05:44:55;;;;;;;4.37;2.50;;;18.60;95.10;;;;;;4343351;32;20146;-75
2021/06/02 05:48:04;;;;;;;8.25;2.20;;;19.10;95.30;;;;;;4314561;33;20111;-76
2021/06/02 05:50:57;;;;;;;4.40;2.00;;;19.50;92.30;;;;;;4321556;33;20095;-73
2021/06/02 05:54:27;;;;;;;6.82;2.58;;;19.40;91.50;;;;;;4352760;32;20070;-74
2021/06/02 05:57:01;;;;;;;6.40;2.20;;;19.50;90.40;;;;;;4339791;33;20106;-75
2021/06/02 06:00:21;;;;;;;6.25;2.15;;;19.90;91.30;;;;;;4368401;32;20164;-74
2021/06/02 06:03:02;;;;;;;3.65;2.33;;;19.90;90.00;;;;;;4370584;32;20101;-77
2021/06/02 06:06:15;;;;;;;5.87;2.40;;;19.70;90.00;;;;;;4372611;32;20066;-74
2021/06/02 06:08:59;;;;;;;6.30;2.30;;;19.70;90.90;;;;;;4357550;32;20073;-78
2021/06/02 06:11:49;;;;;;;3.05;2.03;;;19.60;88.90;;;;;;4384363;32;20077;-75
2021/06/02 06:14:43;;;;;;;3.72;2.30;;;19.60;89.90;;;;;;4389473;32;20062;-75
2021/06/02 06:17:49;;;;;;;3.92;2.35;;;19.50;88.10;;;;;;4383928;32;20105;-71
2021/06/02 06:20:44;;;;;;;6.78;2.70;;;19.70;88.90;;;;;;4365873;32;20066;-75
2021/06/02 06:23:47;;;;;;;5.25;2.45;;;19.90;90.70;;;;;;4332915;32;20066;-75
2021/06/02 06:26:31;;;;;;;10.63;2.80;;;19.80;88.80;;;;;;4379446;32;20508;-75
2021/06/02 06:29:28;;;;;;;4.93;2.60;;;19.80;89.50;;;;;;4361579;32;20094;-68
2021/06/02 06:31:54;;;;;;;3.60;2.45;;;19.90;90.40;;;;;;4366408;32;20086;-76
2021/06/02 06:34:25;;;;;;;8.38;3.08;;;20.20;90.10;;;;;;4355272;32;20062;-73
2021/06/02 06:36:53;;;;;;;3.95;2.35;;;20.20;88.50;;;;;;4365259;32;20096;-75
2021/06/02 06:39:44;;;;;;;4.32;2.47;;;20.20;88.20;;;;;;4362706;32;20073;-75
2021/06/02 06:42:15;;;;;;;5.85;2.85;;;19.80;91.00;;;;;;4370651;32;20603;-71
2021/06/02 06:44:43;;;;;;;4.47;2.45;;;19.80;91.00;;;;;;4362639;32;20078;-74
2021/06/02 06:47:09;;;;;;;7.37;2.37;;;19.90;90.70;;;;;;4355832;32;20065;-75
2021/06/02 06:49:36;;;;;;;5.30;2.58;;;20.10;90.20;;;;;;4376955;32;20148;-76
2021/06/02 06:52:02;;;;;;;7.43;3.25;;;20.00;90.60;;;;;;4347315;32;20105;-74
2021/06/02 06:54:29;;;;;;;4.12;2.60;;;20.00;90.30;;;;;;4371302;32;20066;-75
2021/06/02 06:56:55;;;;;;;5.78;2.65;;;19.80;89.00;;;;;;4375511;32;20169;-75
2021/06/02 06:59:21;;;;;;;10.88;3.33;;;19.90;89.20;;;;;;4347633;32;20180;-74
2021/06/02 07:01:48;;;;;;;4.43;2.58;;;19.90;89.30;;;;;;4337827;32;20078;-78
2021/06/02 07:04:14;;;;;;;6.05;2.35;;;20.10;88.50;;;;;;4355295;32;20092;-73
2021/06/02 07:06:43;;;;;;;8.32;2.83;;;19.90;85.90;;;;;;4334701;32;20066;-73
2021/06/02 07:09:09;;;;;;;6.47;2.60;;;20.00;87.50;;;;;;4354263;32;20074;-77
2021/06/02 07:11:43;;;;;;;4.20;2.30;;;19.80;87.10;;;;;;4366338;32;20496;-73
2021/06/02 07:14:11;;;;;;;5.07;2.22;;;20.10;85.10;;;;;;4373967;32;20081;-77
2021/06/02 07:16:39;;;;;;;5.28;2.67;;;19.90;85.50;;;;;;4351973;32;20089;-73
2021/06/02 07:19:09;;;;;;;3.08;2.33;;;19.90;87.20;;;;;;4350478;32;20089;-75
2021/06/02 07:21:36;;;;;;;8.50;3.05;;;20.00;88.80;;;;;;4348936;32;20087;-77
2021/06/02 07:24:03;;;;;;;4.12;2.60;;;20.00;88.90;;;;;;4367299;32;20076;-76
2021/06/02 07:26:30;;;;;;;4.07;2.65;;;20.00;88.10;;;;;;4349105;32;20143;-75
2021/06/02 07:28:56;;;;;;;11.35;2.92;;;19.90;88.90;;;;;;4358081;32;20240;-78
2021/06/02 07:31:22;;;;;;;5.45;2.67;;;20.10;87.10;;;;;;4369732;32;20153;-78
2021/06/02 07:33:50;;;;;;;9.30;3.20;;;19.90;88.60;;;;;;4367896;32;20069;-80
2021/06/02 07:36:16;;;;;;;5.60;2.87;;;20.60;86.30;;;;;;4365340;32;20162;-77
2021/06/02 07:38:42;;;;;;;12.27;2.92;;;20.50;83.30;;;;;;4355549;32;20082;-76
2021/06/02 07:41:09;;;;;;;6.87;2.53;;;20.40;89.00;;;;;;4337253;32;20576;-80
2021/06/02 07:43:35;;;;;;;4.95;2.80;;;20.40;86.80;;;;;;4342921;32;20078;-78
2021/06/02 07:46:02;;;;;;;7.37;2.80;;;20.40;87.50;;;;;;4346597;32;20428;-76
2021/06/02 07:48:29;;;;;;;8.23;3.10;;;20.80;85.90;;;;;;4348884;32;20054;-79
2021/06/02 07:50:56;;;;;;;7.60;2.97;;;20.30;83.00;;;;;;4359575;32;20120;-83
2021/06/02 07:53:22;;;;;;;9.10;2.83;;;20.40;86.60;;;;;;4365853;32;20082;-79
2021/06/02 07:55:51;;;;;;;6.10;2.78;;;20.70;87.20;;;;;;4368283;32;20050;-76
2021/06/02 07:58:18;;;;;;;4.18;2.87;;;21.00;83.50;;;;;;4339175;32;20097;-80
2021/06/02 08:00:44;;;;;;;7.25;3.10;;;20.50;86.10;;;;;;4350121;32;20100;-82
2021/06/02 08:03:10;;;;;;;6.43;3.10;;;20.00;89.50;;;;;;4380578;32;20451;-76
2021/06/02 08:05:37;;;;;;;10.02;2.95;;;20.40;87.10;;;;;;4347710;32;20065;-75
2021/06/02 08:08:03;;;;;;;4.97;3.30;;;20.60;83.50;;;;;;4341560;32;20072;-77
2021/06/02 08:10:30;;;;;;;5.50;2.60;;;20.40;85.70;;;;;;4339060;32;20102;-79
2021/06/02 08:12:56;;;;;;;10.00;3.05;;;20.20;86.00;;;;;;4348096;32;20102;-67
2021/06/02 08:15:23;;;;;;;13.25;3.00;;;20.30;86.80;;;;;;4346432;32;20061;-75
2021/06/02 08:17:49;;;;;;;7.97;3.08;;;20.00;87.20;;;;;;4338473;32;20085;-74
2021/06/02 08:20:16;;;;;;;5.12;2.85;;;20.10;88.90;;;;;;4352627;32;20473;-76
2021/06/02 08:22:43;;;;;;;9.75;3.20;;;20.10;88.10;;;;;;4362031;32;20098;-72
2021/06/02 08:25:13;;;;;;;10.23;3.60;;;20.00;90.40;;;;;;4361893;32;20077;-79
2021/06/02 08:27:39;;;;;;;5.80;2.92;;;20.10;90.60;;;;;;4346923;32;20144;-76
2021/06/02 08:30:08;;;;;;;5.70;3.22;;;20.10;89.70;;;;;;4347871;32;20081;-73
2021/06/02 08:32:35;;;;;;;7.12;3.35;;;20.30;90.10;;;;;;4324757;32;20104;-77
2021/06/02 08:35:04;;;;;;;7.28;2.90;;;20.30;89.70;;;;;;4339789;32;20113;-73
2021/06/02 08:37:32;;;;;;;7.12;2.87;;;20.40;90.00;;;;;;4361713;32;20077;-79
2021/06/02 08:39:58;;;;;;;6.12;3.08;;;20.30;88.90;;;;;;4335820;32;20104;-75
2021/06/02 08:42:26;;;;;;;8.57;3.17;;;20.20;90.20;;;;;;4335359;32;20082;-64
2021/06/02 08:44:52;;;;;;;10.65;3.58;;;20.50;88.70;;;;;;4334915;32;20077;-64
2021/06/02 08:47:19;;;;;;;6.30;3.30;;;20.40;88.80;;;;;;4352325;32;20142;-67
2021/06/02 08:49:46;;;;;;;9.05;3.00;;;20.90;88.50;;;;;;4350471;32;20137;-65
2021/06/02 08:52:13;;;;;;;5.25;2.62;;;20.70;85.20;;;;;;4351100;32;20468;-69
2021/06/02 08:54:39;;;;;;;12.43;3.17;;;21.20;85.40;;;;;;4336934;32;20081;-71
2021/06/02 08:57:08;;;;;;;8.73;3.08;;;20.60;84.30;;;;;;4368512;32;20162;-72
2021/06/02 08:59:35;;;;;;;7.60;2.90;;;20.30;87.00;;;;;;4357799;32;20211;-73
2021/06/02 09:02:05;;;;;;;5.68;3.35;;;20.70;86.90;;;;;;4363779;32;20102;-71
2021/06/02 09:04:33;;;;;;;7.95;3.15;;;20.50;88.00;;;;;;4369890;32;20070;-73
2021/06/02 09:07:04;;;;;;;7.75;3.22;;;20.80;87.60;;;;;;4371859;32;20116;-71
2021/06/02 09:09:31;;;;;;;7.87;3.25;;;20.80;86.60;;;;;;4341334;32;20117;-71
2021/06/02 09:12:03;;;;;;;7.32;3.37;;;20.60;87.20;;;;;;4358046;32;21042;-71
2021/06/02 09:14:32;;;;;;;6.10;3.40;;;20.40;89.60;;;;;;4349271;32;20085;-71
2021/06/02 09:17:03;;;;;;;6.47;2.80;;;20.40;89.30;;;;;;4347811;32;20165;-72
2021/06/02 09:19:44;;;;;;;5.15;3.12;;;20.40;88.70;;;;;;4350575;32;20070;-69
2021/06/02 09:22:14;;;;;;;5.12;2.85;;;20.30;88.40;;;;;;4365285;32;20135;-66
2021/06/02 09:24:58;;;;;;;4.47;3.08;;;20.40;89.50;;;;;;4345377;32;20092;-64
2021/06/02 09:27:51;;;;;;;7.43;3.78;;;20.10;89.70;;;;;;4325240;32;20062;-67
2021/06/02 09:30:39;;;;;;;5.95;3.20;;;20.70;89.70;;;;;;4356005;32;20121;-69
2021/06/02 09:33:05;;;;;;;8.40;3.25;;;20.70;89.90;;;;;;4375438;32;20086;-71
2021/06/02 09:35:41;;;;;;;9.18;3.30;;;21.00;87.90;;;;;;4358308;32;20492;-68
2021/06/02 09:38:25;;;;;;;5.62;2.90;;;20.60;87.50;;;;;;4350563;32;20070;-70
2021/06/02 09:40:56;;;;;;;7.28;3.35;;;20.70;90.00;;;;;;4362318;32;20067;-73
2021/06/02 09:43:33;;;;;;;6.35;2.90;;;20.70;87.80;;;;;;4346338;32;20067;-72
2021/06/02 09:46:09;;;;;;;7.68;3.10;;;20.50;89.30;;;;;;4357186;32;20075;-69
2021/06/02 09:48:48;;;;;;;5.15;2.85;;;20.20;88.30;;;;;;4356036;32;20146;-74
2021/06/02 09:51:35;;;;;;;11.32;3.50;;;20.20;89.70;;;;;;4369746;32;20547;-72
2021/06/02 09:54:06;;;;;;;;;;;20.00;89.50;;;;;;4368812;32;20098;-69
2021/06/02 09:56:43;;;;;;;8.00;2.85;;;20.10;89.80;;;;;;4352633;32;20079;-71
2021/06/02 09:59:11;;;;;;;4.95;2.62;;;20.30;89.10;;;;;;4323203;32;20082;-71
2021/06/02 10:02:04;;;;;;;5.78;2.70;;;20.30;89.30;;;;;;4334806;32;20110;-67
2021/06/02 10:04:39;;;;;;;6.22;2.62;;;20.10;89.60;;;;;;4320264;32;20093;-68
2021/06/02 10:07:17;;;;;;;6.72;3.28;;;20.10;90.20;;;;;;4328801;32;20134;-71
2021/06/02 10:09:44;;;;;;;7.43;3.15;;;20.10;90.60;;;;;;4345909;32;20104;-71
2021/06/02 10:12:11;;;;;;;7.43;3.28;;;20.10;90.50;;;;;;4330999;32;20557;-67
2021/06/02 10:14:58;;;;;;;4.37;3.05;;;20.10;90.70;;;;;;4339994;32;20166;-67
2021/06/02 10:17:37;;;;;;;4.97;2.80;;;20.20;90.40;;;;;;4353665;32;20091;-66
2021/06/02 10:20:12;;;;;;;6.20;3.12;;;20.30;90.00;;;;;;4345874;32;20090;-64
2021/06/02 10:22:39;;;;;;;6.15;2.97;;;20.30;89.00;;;;;;4320830;32;20069;-65
2021/06/02 10:25:09;;;;;;;9.13;3.47;;;20.20;90.80;;;;;;4346655;32;20117;-71
2021/06/02 10:27:36;;;;;;;8.25;3.12;;;20.50;90.60;;;;;;4331557;32;20107;-72
2021/06/02 10:30:06;;;;;;;5.32;3.10;;;20.20;89.70;;;;;;4335736;32;20098;-72
2021/06/02 10:32:32;;;;;;;10.18;3.40;;;20.10;90.50;;;;;;4340892;32;20118;-69
2021/06/02 10:34:59;;;;;;;7.12;3.37;;;20.30;88.80;;;;;;4322185;32;20084;-71
2021/06/02 10:37:25;;;;;;;7.25;3.25;;;20.10;90.50;;;;;;4342530;32;20071;-70
2021/06/02 10:40:07;;;;;;;6.10;3.25;;;20.30;90.00;;;;;;4325548;33;20054;-75
2021/06/02 10:42:50;;;;;;;5.90;2.70;;;20.00;89.90;;;;;;4331863;32;20075;-71
2021/06/02 10:45:29;;;;;;;7.65;2.90;;;20.00;90.10;;;;;;4332893;32;20066;-76
2021/06/02 10:48:05;;;;;;;5.82;3.05;;;20.00;90.70;;;;;;4318147;32;20063;-68
2021/06/02 10:50:45;;;;;;;6.35;3.15;;;20.10;91.10;;;;;;4331510;32;20074;-67
2021/06/02 10:53:24;;;;;;;6.90;3.60;;;20.10;90.40;;;;;;4343387;32;20109;-71
2021/06/02 10:55:59;;;;;;;14.30;3.70;;;20.10;88.10;;;;;;4344806;32;20085;-70
2021/06/02 10:58:32;;;;;;;14.45;3.87;;;20.10;81.80;;;;;;4326218;32;20162;-70
2021/06/02 11:01:05;;;;;;;8.98;3.47;;;20.10;81.00;;;;;;4340546;32;20086;-71
2021/06/02 11:03:32;;;;;;;10.30;3.50;;;20.30;81.60;;;;;;4353553;32;20078;-73
2021/06/02 11:06:19;;;;;;;7.40;3.05;;;20.40;77.20;;;;;;4316028;32;20539;-69
2021/06/02 11:08:51;;;;;;;11.07;3.72;;;20.40;78.60;;;;;;4344013;32;20098;-69
2021/06/02 11:11:31;;;;;;;5.30;2.80;;;20.10;77.70;;;;;;4365498;32;20075;-71
2021/06/02 11:14:24;;;;;;;5.45;3.22;;;20.00;77.00;;;;;;4354288;32;20101;-72
2021/06/02 11:16:54;;;;;;;5.90;2.92;;;20.20;76.40;;;;;;4351202;32;20078;-72
2021/06/02 11:19:36;;;;;;;12.52;3.65;;;20.20;75.50;;;;;;4355363;32;20192;-73
2021/06/02 11:22:06;;;;;;;13.38;3.60;;;20.10;73.30;;;;;;4320497;32;20500;-76
2021/06/02 11:24:33;;;;;;;11.60;3.00;;;20.20;74.00;;;;;;4332641;32;20456;-74
2021/06/02 11:29:50;;;;;;;5.72;2.95;;;20.20;72.80;;;;;;4351060;32;20215;-74
2021/06/02 11:32:25;;;;;;;8.73;3.15;;;20.30;70.90;;;;;;4343696;32;20098;-75
2021/06/02 11:35:02;;;;;;;8.65;2.75;;;20.30;70.40;;;;;;4342873;32;20207;-72
2021/06/02 11:37:30;;;;;;;11.50;3.30;;;20.20;68.60;;;;;;4329272;32;20197;-77
2021/06/02 11:40:01;;;;;;;7.35;3.00;;;20.10;67.80;;;;;;4328909;32;20158;-74
2021/06/02 11:42:30;;;;;;;10.32;3.12;;;20.10;68.90;;;;;;4331292;32;20059;-74
2021/06/02 11:45:02;;;;;;;6.28;2.83;;;20.30;70.60;;;;;;4328357;32;20125;-73
2021/06/02 11:47:29;;;;;;;8.18;3.37;;;20.40;67.90;;;;;;4341385;32;20081;-74
2021/06/02 11:50:08;;;;;;;9.48;3.37;;;20.50;68.60;;;;;;4341795;32;20281;-73
2021/06/02 11:52:35;;;;;;;7.25;3.55;;;20.60;67.90;;;;;;4351380;32;20150;-75
2021/06/02 11:55:05;;;;;;;10.93;3.40;;;20.50;68.80;;;;;;4341207;32;20143;-74
2021/06/02 11:57:42;;;;;;;6.25;3.12;;;20.60;66.80;;;;;;4341989;32;20070;-75
2021/06/02 12:00:10;;;;;;;3.00;2.37;;;;;;;;;;4360174;32;20082;-70
2021/06/02 12:02:37;;;;;;;7.50;2.83;;;;;;;;;;4364650;32;20070;-70
2021/06/02 12:05:19;;;;;;;7.85;3.00;;;;;;;;;;4358543;32;20062;-70
2021/06/02 12:07:47;;;;;;;8.38;3.62;;;;;;;;;;4358606;32;20090;-68
2021/06/02 12:10:14;;;;;;;12.45;3.50;;;;;;;;;;4355688;32;20079;-67
2021/06/02 12:12:42;;;;;;;6.00;2.80;;;;;;;;;;4364444;32;20065;-66
2021/06/02 12:15:09;;;;;;;5.45;3.00;;;;;;;;;;4349461;32;20089;-69
2021/06/02 12:17:37;;;;;;;12.15;3.58;;;;;;;;;;4347865;32;20093;-69
2021/06/02 12:20:08;;;;;;;9.20;3.25;;;;;;;;;;4350112;32;20080;-68
2021/06/02 12:22:35;;;;;;;10.05;3.20;;;;;;;;;;4364895;32;20464;-68
2021/06/02 12:25:09;;;;;;;9.88;3.95;;;;;;;;;;4354484;32;20584;-68
2021/06/02 12:27:56;;;;;;;11.52;3.47;;;;;;;;;;4364962;32;20120;-67
2021/06/02 12:30:37;;;;;;;9.32;3.25;;;;;;;;;;4355696;32;20473;-68
2021/06/02 12:33:05;;;;;;;11.00;3.83;;;;;;;;;;4368224;32;20066;-70
2021/06/02 12:35:38;;;;;;;14.63;3.83;;;;;;;;;;4367074;32;20209;-69
2021/06/02 12:38:18;;;;;;;6.85;2.80;;;;;;;;;;4362249;32;20113;-71
2021/06/02 12:40:52;;;;;;;10.70;3.65;;;;;;;;;;4358058;32;20476;-69
2021/06/02 12:43:37;;;;;;;6.53;2.80;;;;;;;;;;4340550;32;20254;-67
2021/06/02 12:46:10;;;;;;;10.13;3.40;;;;;;;;;;4358599;32;20085;-65
2021/06/02 12:48:38;;;;;;;6.75;3.50;;;;;;;;;;4344531;32;20081;-67
2021/06/02 12:51:06;;;;;;;9.45;3.65;;;;;;;;;;4341644;32;20066;-70
2021/06/02 12:53:40;;;;;;;8.48;3.30;;;;;;;;;;4355721;32;20113;-65
2021/06/02 12:56:07;;;;;;;7.35;3.78;;;;;;;;;;4361413;32;20439;-62
2021/06/02 12:58:35;;;;;;;9.27;2.95;;;;;;;;;;4355640;32;20064;-64
2021/06/02 13:01:31;;;;;;;9.98;2.80;;;;;;;;;;4348059;32;20475;-65
2021/06/02 13:04:00;;;;;;;8.95;3.62;;;;;;;;;;4368518;32;20363;-65
2021/06/02 13:06:30;;;;;;;6.47;2.85;;;;;;;;;;4347027;32;20086;-66
2021/06/02 13:08:57;;;;;;;10.60;3.62;;;;;;;;;;4348011;32;20166;-68
2021/06/02 13:11:31;;;;;;;9.32;3.30;;;;;;;;;;4361217;32;20062;-65
2021/06/02 13:13:59;;;;;;;6.30;2.97;;;;;;;;;;4361517;32;20057;-67
2021/06/02 13:16:26;;;;;;;10.73;3.20;;;;;;;;;;4353331;32;20121;-71
2021/06/02 13:19:03;;;;;;;7.03;3.12;;;;;;;;;;4356675;32;20186;-70
2021/06/02 13:21:31;;;;;;;17.12;3.42;;;;;;;;;;4373628;32;20105;-71
2021/06/02 13:24:36;;;;;;;6.90;3.42;;;;;;;;;;4357879;32;20166;-69
2021/06/02 13:27:03;;;;;;;12.82;3.90;;;;;;;;;;4348902;32;20087;-70
2021/06/02 13:29:30;;;;;;;12.32;3.42;;;;;;;;;;4357603;32;20057;-67
2021/06/02 13:31:59;;;;;;;11.32;3.08;;;;;;;;;;4343613;32;20169;-68
2021/06/02 13:34:36;;;;;;;9.38;2.90;;;;;;;;;;4344376;32;20092;-67
2021/06/02 13:37:22;;;;;;;5.18;3.03;;;;;;;;;;4353471;32;20116;-68
2021/06/02 13:40:17;;;;;;;10.50;3.40;;;;;;;;;;4338977;32;20209;-67
2021/06/02 13:43:10;;;;;;;15.85;4.22;;;;;;;;;;4345805;32;20186;-66
2021/06/02 13:46:12;;;;;;;13.25;3.15;;;;;;;;;;4342999;32;20110;-73
2021/06/02 13:48:49;;;;;;;10.38;3.05;;;;;;;;;;4335717;33;20091;-67
2021/06/02 13:51:24;;;;;;;11.20;3.20;;;;;;;;;;4354023;32;20105;-65
2021/06/02 13:54:11;;;;;;;7.85;3.10;;;;;;;;;;4357290;32;20637;-67
2021/06/02 13:56:52;;;;;;;9.35;3.15;;;;;;;;;;4369417;32;20082;-69
2021/06/02 13:59:49;;;;;;;7.47;2.97;;;;;;;;;;4346857;32;20101;-70
2021/06/02 14:02:26;;;;;;;11.12;3.20;;;;;;;;;;4374206;32;20070;-71
2021/06/02 14:04:56;;;;;;;5.85;2.47;;;;;;;;;;4349521;32;20077;-69
2021/06/02 14:07:23;;;;;;;8.13;3.55;;;;;;;;;;4356121;32;20509;-68
2021/06/02 14:09:49;;;;;;;6.12;2.70;;;;;;;;;;4361689;32;20485;-71